sensor_id;sensor_type;location;lat;lon;timestamp;P1;durP1;ratioP1;P2;durP2;ratioP2
11618;SDS011;5865;48.776;9.280;2022-11-04T00:00:44;3.80;;;2.10;;
11618;SDS011;5865;48.776;9.280;2022-11-04T00:03:15;2.57;;;1.80;;
11618;SDS011;5865;48.776;9.280;2022-11-04T00:05:42;2.30;;;1.93;;
11618;SDS011;5865;48.776;9.280;2022-11-04T00:08:23;3.43;;;1.90;;
11618;SDS011;5865;48.776;9.280;2022-11-04T00:11:04;2.03;;;1.87;;
11618;SDS011;5865;48.776;9.280;2022-11-04T00:13:48;3.00;;;1.80;;
11618;SDS011;5865;48.776;9.280;2022-11-04T00:16:20;2.80;;;1.83;;
11618;SDS011;5865;48.776;9.280;2022-11-04T00:19:04;1.97;;;1.77;;
11618;SDS011;5865;48.776;9.280;2022-11-04T00:21:45;2.17;;;1.53;;
11618;SDS011;5865;48.776;9.280;2022-11-04T00:24:30;1.73;;;1.60;;
11618;SDS011;5865;48.776;9.280;2022-11-04T00:27:15;1.90;;;1.60;;
11618;SDS011;5865;48.776;9.280;2022-11-04T00:30:00;2.20;;;1.77;;
11618;SDS011;5865;48.776;9.280;2022-11-04T00:39:10;1.67;;;1.47;;
11618;SDS011;5865;48.776;9.280;2022-11-04T00:41:51;1.80;;;1.40;;
11618;SDS011;5865;48.776;9.280;2022-11-04T00:44:32;1.40;;;1.30;;
11618;SDS011;5865;48.776;9.280;2022-11-04T00:47:13;1.20;;;1.10;;
11618;SDS011;5865;48.776;9.280;2022-11-04T00:49:48;0.87;;;0.87;;
11618;SDS011;5865;48.776;9.280;2022-11-04T01:24:20;1.47;;;1.10;;
11618;SDS011;5865;48.776;9.280;2022-11-04T01:27:01;1.10;;;1.00;;
11618;SDS011;5865;48.776;9.280;2022-11-04T01:29:43;1.20;;;1.10;;
11618;SDS011;5865;48.776;9.280;2022-11-04T01:32:24;1.67;;;1.20;;
11618;SDS011;5865;48.776;9.280;2022-11-04T01:35:06;1.10;;;1.00;;
11618;SDS011;5865;48.776;9.280;2022-11-04T01:37:47;1.43;;;1.30;;
11618;SDS011;5865;48.776;9.280;2022-11-04T01:53:12;1.10;;;1.00;;
11618;SDS011;5865;48.776;9.280;2022-11-04T01:55:58;1.40;;;1.30;;
11618;SDS011;5865;48.776;9.280;2022-11-04T01:58:42;1.20;;;1.10;;
11618;SDS011;5865;48.776;9.280;2022-11-04T02:01:27;1.60;;;1.00;;
11618;SDS011;5865;48.776;9.280;2022-11-04T02:04:08;1.17;;;1.07;;
11618;SDS011;5865;48.776;9.280;2022-11-04T02:07:17;1.40;;;1.20;;
11618;SDS011;5865;48.776;9.280;2022-11-04T02:09:58;1.77;;;1.20;;
11618;SDS011;5865;48.776;9.280;2022-11-04T02:12:39;1.83;;;1.20;;
11618;SDS011;5865;48.776;9.280;2022-11-04T02:15:30;1.37;;;1.00;;
11618;SDS011;5865;48.776;9.280;2022-11-04T02:18:20;1.83;;;1.23;;
11618;SDS011;5865;48.776;9.280;2022-11-04T02:21:28;1.57;;;1.00;;
11618;SDS011;5865;48.776;9.280;2022-11-04T03:30:48;1.37;;;0.80;;
11618;SDS011;5865;48.776;9.280;2022-11-04T03:33:34;4.30;;;1.00;;
11618;SDS011;5865;48.776;9.280;2022-11-04T03:36:20;1.03;;;0.90;;
11618;SDS011;5865;48.776;9.280;2022-11-04T03:39:01;0.80;;;0.80;;
11618;SDS011;5865;48.776;9.280;2022-11-04T03:41:43;1.13;;;0.70;;
11618;SDS011;5865;48.776;9.280;2022-11-04T04:42:13;1.57;;;1.10;;
11618;SDS011;5865;48.776;9.280;2022-11-04T04:44:58;1.57;;;1.27;;
11618;SDS011;5865;48.776;9.280;2022-11-04T04:47:44;1.80;;;1.33;;
11618;SDS011;5865;48.776;9.280;2022-11-04T04:50:14;2.83;;;1.30;;
11618;SDS011;5865;48.776;9.280;2022-11-04T04:52:56;1.83;;;1.30;;
11618;SDS011;5865;48.776;9.280;2022-11-04T04:55:39;1.83;;;1.37;;
11618;SDS011;5865;48.776;9.280;2022-11-04T05:04:47;2.57;;;1.90;;
11618;SDS011;5865;48.776;9.280;2022-11-04T05:07:28;2.07;;;1.87;;
11618;SDS011;5865;48.776;9.280;2022-11-04T05:09:59;3.07;;;2.00;;
11618;SDS011;5865;48.776;9.280;2022-11-04T05:12:41;3.30;;;2.10;;
11618;SDS011;5865;48.776;9.280;2022-11-04T05:15:26;2.50;;;2.10;;
11618;SDS011;5865;48.776;9.280;2022-11-04T05:18:07;4.13;;;2.10;;
11618;SDS011;5865;48.776;9.280;2022-11-04T05:30:11;3.10;;;1.80;;
11618;SDS011;5865;48.776;9.280;2022-11-04T05:32:52;2.30;;;1.90;;
11618;SDS011;5865;48.776;9.280;2022-11-04T05:35:33;3.97;;;2.00;;
11618;SDS011;5865;48.776;9.280;2022-11-04T05:38:14;2.27;;;1.90;;
11618;SDS011;5865;48.776;9.280;2022-11-04T05:40:56;1.87;;;1.67;;
11618;SDS011;5865;48.776;9.280;2022-11-04T05:47:04;4.00;;;2.30;;
11618;SDS011;5865;48.776;9.280;2022-11-04T05:49:45;3.30;;;2.00;;
11618;SDS011;5865;48.776;9.280;2022-11-04T05:52:26;3.23;;;1.77;;
11618;SDS011;5865;48.776;9.280;2022-11-04T05:55:07;3.67;;;2.30;;
11618;SDS011;5865;48.776;9.280;2022-11-04T05:57:48;5.73;;;1.73;;
11618;SDS011;5865;48.776;9.280;2022-11-04T06:38:39;2.93;;;2.10;;
11618;SDS011;5865;48.776;9.280;2022-11-04T06:41:20;6.00;;;5.23;;
11618;SDS011;5865;48.776;9.280;2022-11-04T06:44:01;7.50;;;5.90;;
11618;SDS011;5865;48.776;9.280;2022-11-04T06:46:42;4.43;;;4.00;;
11618;SDS011;5865;48.776;9.280;2022-11-04T06:49:24;9.30;;;4.80;;
11618;SDS011;5865;48.776;9.280;2022-11-04T07:11:08;5.80;;;2.97;;
11618;SDS011;5865;48.776;9.280;2022-11-04T07:13:37;4.87;;;2.20;;
11618;SDS011;5865;48.776;9.280;2022-11-04T07:16:08;2.50;;;1.80;;
11618;SDS011;5865;48.776;9.280;2022-11-04T07:18:40;2.97;;;2.57;;
11618;SDS011;5865;48.776;9.280;2022-11-04T07:21:08;3.60;;;2.10;;
11618;SDS011;5865;48.776;9.280;2022-11-04T07:23:49;2.33;;;2.00;;
11618;SDS011;5865;48.776;9.280;2022-11-04T07:26:17;4.43;;;2.43;;
11618;SDS011;5865;48.776;9.280;2022-11-04T07:28:44;3.00;;;2.30;;
11618;SDS011;5865;48.776;9.280;2022-11-04T07:31:26;3.07;;;2.07;;
11618;SDS011;5865;48.776;9.280;2022-11-04T07:34:07;4.17;;;2.20;;
11618;SDS011;5865;48.776;9.280;2022-11-04T07:36:48;3.00;;;2.17;;
11618;SDS011;5865;48.776;9.280;2022-11-04T07:39:29;4.57;;;2.20;;
11618;SDS011;5865;48.776;9.280;2022-11-04T07:54:46;3.40;;;2.00;;
11618;SDS011;5865;48.776;9.280;2022-11-04T07:57:27;2.57;;;1.60;;
11618;SDS011;5865;48.776;9.280;2022-11-04T08:00:09;3.10;;;1.50;;
11618;SDS011;5865;48.776;9.280;2022-11-04T08:02:50;3.20;;;1.83;;
11618;SDS011;5865;48.776;9.280;2022-11-04T08:05:31;1.40;;;1.30;;
11618;SDS011;5865;48.776;9.280;2022-11-04T08:08:01;3.43;;;1.57;;
11618;SDS011;5865;48.776;9.280;2022-11-04T08:13:50;2.20;;;1.80;;
11618;SDS011;5865;48.776;9.280;2022-11-04T08:16:31;2.63;;;1.60;;
11618;SDS011;5865;48.776;9.280;2022-11-04T08:18:58;2.80;;;1.70;;
11618;SDS011;5865;48.776;9.280;2022-11-04T08:21:39;2.93;;;1.50;;
11618;SDS011;5865;48.776;9.280;2022-11-04T08:24:21;2.70;;;1.70;;
11618;SDS011;5865;48.776;9.280;2022-11-04T08:27:03;1.87;;;1.43;;
11618;SDS011;5865;48.776;9.280;2022-11-04T08:44:28;3.23;;;1.20;;
11618;SDS011;5865;48.776;9.280;2022-11-04T08:47:09;1.83;;;1.23;;
11618;SDS011;5865;48.776;9.280;2022-11-04T08:49:50;1.50;;;1.07;;
11618;SDS011;5865;48.776;9.280;2022-11-04T08:52:32;1.77;;;1.10;;
11618;SDS011;5865;48.776;9.280;2022-11-04T08:55:13;2.70;;;1.40;;
11618;SDS011;5865;48.776;9.280;2022-11-04T08:57:54;3.30;;;1.30;;
11618;SDS011;5865;48.776;9.280;2022-11-04T09:03:33;2.80;;;1.30;;
11618;SDS011;5865;48.776;9.280;2022-11-04T09:06:19;2.93;;;2.10;;
11618;SDS011;5865;48.776;9.280;2022-11-04T09:09:00;3.10;;;1.47;;
11618;SDS011;5865;48.776;9.280;2022-11-04T09:11:42;2.03;;;1.50;;
11618;SDS011;5865;48.776;9.280;2022-11-04T09:14:25;1.73;;;1.57;;
11618;SDS011;5865;48.776;9.280;2022-11-04T09:17:13;3.17;;;1.43;;
11618;SDS011;5865;48.776;9.280;2022-11-04T09:19:52;2.27;;;1.50;;
11618;SDS011;5865;48.776;9.280;2022-11-04T09:22:34;3.00;;;1.50;;
11618;SDS011;5865;48.776;9.280;2022-11-04T09:25:15;2.37;;;1.70;;
11618;SDS011;5865;48.776;9.280;2022-11-04T09:27:56;1.87;;;1.50;;
11618;SDS011;5865;48.776;9.280;2022-11-04T09:30:37;2.03;;;1.57;;
11618;SDS011;5865;48.776;9.280;2022-11-04T09:33:18;1.97;;;1.73;;
11618;SDS011;5865;48.776;9.280;2022-11-04T09:39:12;2.07;;;1.50;;
11618;SDS011;5865;48.776;9.280;2022-11-04T09:41:56;2.13;;;1.60;;
11618;SDS011;5865;48.776;9.280;2022-11-04T09:44:43;3.30;;;1.40;;
11618;SDS011;5865;48.776;9.280;2022-11-04T09:47:29;2.67;;;1.40;;
11618;SDS011;5865;48.776;9.280;2022-11-04T09:50:14;3.00;;;1.40;;
11618;SDS011;5865;48.776;9.280;2022-11-04T09:52:59;2.20;;;1.57;;
11618;SDS011;5865;48.776;9.280;2022-11-04T10:10:35;2.20;;;1.80;;
11618;SDS011;5865;48.776;9.280;2022-11-04T10:13:20;1.90;;;1.40;;
11618;SDS011;5865;48.776;9.280;2022-11-04T10:16:10;2.80;;;1.40;;
11618;SDS011;5865;48.776;9.280;2022-11-04T10:19:07;3.37;;;1.50;;
11618;SDS011;5865;48.776;9.280;2022-11-04T10:21:54;2.07;;;1.50;;
11618;SDS011;5865;48.776;9.280;2022-11-04T10:24:39;2.63;;;1.60;;
11618;SDS011;5865;48.776;9.280;2022-11-04T10:39:45;4.23;;;1.80;;
11618;SDS011;5865;48.776;9.280;2022-11-04T10:42:26;3.80;;;1.70;;
11618;SDS011;5865;48.776;9.280;2022-11-04T10:45:09;3.13;;;1.77;;
11618;SDS011;5865;48.776;9.280;2022-11-04T10:47:38;2.70;;;1.60;;
11618;SDS011;5865;48.776;9.280;2022-11-04T10:50:15;3.27;;;1.40;;
11618;SDS011;5865;48.776;9.280;2022-11-04T10:53:10;3.27;;;1.50;;
11618;SDS011;5865;48.776;9.280;2022-11-04T10:55:56;2.17;;;1.37;;
11618;SDS011;5865;48.776;9.280;2022-11-04T10:58:28;4.10;;;1.40;;
11618;SDS011;5865;48.776;9.280;2022-11-04T11:01:21;4.07;;;1.03;;
11618;SDS011;5865;48.776;9.280;2022-11-04T11:03:49;4.83;;;1.40;;
11618;SDS011;5865;48.776;9.280;2022-11-04T11:06:20;4.07;;;1.30;;
11618;SDS011;5865;48.776;9.280;2022-11-04T11:08:56;2.30;;;1.30;;
11618;SDS011;5865;48.776;9.280;2022-11-04T11:11:39;2.40;;;1.20;;
11618;SDS011;5865;48.776;9.280;2022-11-04T11:14:16;3.00;;;1.30;;
11618;SDS011;5865;48.776;9.280;2022-11-04T11:16:44;3.00;;;1.20;;
11618;SDS011;5865;48.776;9.280;2022-11-04T11:19:15;2.47;;;1.27;;
11618;SDS011;5865;48.776;9.280;2022-11-04T11:21:45;2.07;;;1.23;;
11618;SDS011;5865;48.776;9.280;2022-11-04T11:24:15;3.03;;;1.30;;
11618;SDS011;5865;48.776;9.280;2022-11-04T11:29:47;1.40;;;1.10;;
11618;SDS011;5865;48.776;9.280;2022-11-04T11:32:30;2.83;;;1.43;;
11618;SDS011;5865;48.776;9.280;2022-11-04T11:35:01;2.17;;;1.40;;
11618;SDS011;5865;48.776;9.280;2022-11-04T11:37:28;3.33;;;1.40;;
11618;SDS011;5865;48.776;9.280;2022-11-04T11:39:56;3.77;;;1.80;;
11618;SDS011;5865;48.776;9.280;2022-11-04T11:42:26;2.93;;;1.30;;
11618;SDS011;5865;48.776;9.280;2022-11-04T11:44:55;2.97;;;1.40;;
11618;SDS011;5865;48.776;9.280;2022-11-04T11:47:33;5.03;;;1.30;;
11618;SDS011;5865;48.776;9.280;2022-11-04T11:50:13;2.83;;;1.20;;
11618;SDS011;5865;48.776;9.280;2022-11-04T11:52:48;15.03;;;9.00;;
11618;SDS011;5865;48.776;9.280;2022-11-04T11:55:17;3.63;;;1.50;;
11618;SDS011;5865;48.776;9.280;2022-11-04T11:57:53;6.13;;;1.60;;
11618;SDS011;5865;48.776;9.280;2022-11-04T12:00:31;2.90;;;1.30;;
11618;SDS011;5865;48.776;9.280;2022-11-04T12:03:04;4.17;;;1.43;;
11618;SDS011;5865;48.776;9.280;2022-11-04T12:05:36;3.37;;;1.13;;
11618;SDS011;5865;48.776;9.280;2022-11-04T12:08:11;2.77;;;1.40;;
11618;SDS011;5865;48.776;9.280;2022-11-04T12:10:46;3.83;;;1.30;;
11618;SDS011;5865;48.776;9.280;2022-11-04T12:13:23;2.47;;;1.07;;
11618;SDS011;5865;48.776;9.280;2022-11-04T12:15:58;4.90;;;1.20;;
11618;SDS011;5865;48.776;9.280;2022-11-04T12:18:51;4.20;;;1.50;;
11618;SDS011;5865;48.776;9.280;2022-11-04T12:21:23;5.50;;;2.10;;
11618;SDS011;5865;48.776;9.280;2022-11-04T12:23:58;3.97;;;1.37;;
11618;SDS011;5865;48.776;9.280;2022-11-04T12:26:35;5.77;;;1.90;;
11618;SDS011;5865;48.776;9.280;2022-11-04T12:29:26;7.87;;;3.20;;
11618;SDS011;5865;48.776;9.280;2022-11-04T12:32:03;7.43;;;2.47;;
11618;SDS011;5865;48.776;9.280;2022-11-04T12:34:45;2.45;;;1.48;;
11618;SDS011;5865;48.776;9.280;2022-11-04T12:37:19;2.90;;;1.27;;
11618;SDS011;5865;48.776;9.280;2022-11-04T12:40:00;4.37;;;1.10;;
11618;SDS011;5865;48.776;9.280;2022-11-04T12:42:33;4.73;;;1.30;;
11618;SDS011;5865;48.776;9.280;2022-11-04T12:45:08;4.63;;;1.33;;
11618;SDS011;5865;48.776;9.280;2022-11-04T12:47:38;5.93;;;1.47;;
11618;SDS011;5865;48.776;9.280;2022-11-04T12:50:12;3.10;;;1.25;;
11618;SDS011;5865;48.776;9.280;2022-11-04T12:53:33;3.28;;;1.30;;
11618;SDS011;5865;48.776;9.280;2022-11-04T12:56:23;2.50;;;1.02;;
11618;SDS011;5865;48.776;9.280;2022-11-04T12:59:13;3.75;;;1.10;;
11618;SDS011;5865;48.776;9.280;2022-11-04T13:01:56;3.78;;;1.20;;
11618;SDS011;5865;48.776;9.280;2022-11-04T13:04:28;4.95;;;1.17;;
11618;SDS011;5865;48.776;9.280;2022-11-04T13:07:02;7.68;;;1.30;;
11618;SDS011;5865;48.776;9.280;2022-11-04T13:09:35;4.35;;;1.20;;
11618;SDS011;5865;48.776;9.280;2022-11-04T13:12:04;3.87;;;1.23;;
11618;SDS011;5865;48.776;9.280;2022-11-04T13:14:34;4.53;;;1.30;;
11618;SDS011;5865;48.776;9.280;2022-11-04T13:17:12;3.75;;;0.98;;
11618;SDS011;5865;48.776;9.280;2022-11-04T13:19:42;2.77;;;0.90;;
11618;SDS011;5865;48.776;9.280;2022-11-04T13:22:12;3.47;;;1.10;;
11618;SDS011;5865;48.776;9.280;2022-11-04T13:24:45;5.37;;;1.20;;
11618;SDS011;5865;48.776;9.280;2022-11-04T13:27:17;4.00;;;1.00;;
11618;SDS011;5865;48.776;9.280;2022-11-04T13:29:46;4.53;;;1.50;;
11618;SDS011;5865;48.776;9.280;2022-11-04T13:32:17;2.50;;;1.20;;
11618;SDS011;5865;48.776;9.280;2022-11-04T13:34:47;2.97;;;1.30;;
11618;SDS011;5865;48.776;9.280;2022-11-04T13:37:23;7.45;;;1.33;;
11618;SDS011;5865;48.776;9.280;2022-11-04T13:39:55;3.17;;;1.02;;
11618;SDS011;5865;48.776;9.280;2022-11-04T13:42:30;5.05;;;1.20;;
11618;SDS011;5865;48.776;9.280;2022-11-04T13:45:03;2.47;;;0.90;;
11618;SDS011;5865;48.776;9.280;2022-11-04T13:47:37;4.22;;;1.30;;
11618;SDS011;5865;48.776;9.280;2022-11-04T13:50:26;2.90;;;1.10;;
11618;SDS011;5865;48.776;9.280;2022-11-04T13:52:56;4.50;;;1.00;;
11618;SDS011;5865;48.776;9.280;2022-11-04T13:55:24;6.50;;;1.23;;
11618;SDS011;5865;48.776;9.280;2022-11-04T13:57:53;2.37;;;1.10;;
11618;SDS011;5865;48.776;9.280;2022-11-04T14:00:22;3.45;;;1.10;;
11618;SDS011;5865;48.776;9.280;2022-11-04T14:02:52;1.73;;;1.17;;
11618;SDS011;5865;48.776;9.280;2022-11-04T14:08:19;6.67;;;1.50;;
11618;SDS011;5865;48.776;9.280;2022-11-04T14:10:58;3.23;;;1.17;;
11618;SDS011;5865;48.776;9.280;2022-11-04T14:13:44;3.87;;;1.40;;
11618;SDS011;5865;48.776;9.280;2022-11-04T14:22:22;3.57;;;1.30;;
11618;SDS011;5865;48.776;9.280;2022-11-04T14:24:57;2.23;;;1.10;;
11618;SDS011;5865;48.776;9.280;2022-11-04T14:27:29;2.00;;;1.40;;
11618;SDS011;5865;48.776;9.280;2022-11-04T14:29:57;3.67;;;1.20;;
11618;SDS011;5865;48.776;9.280;2022-11-04T14:32:26;3.20;;;1.40;;
11618;SDS011;5865;48.776;9.280;2022-11-04T14:34:59;5.00;;;2.40;;
11618;SDS011;5865;48.776;9.280;2022-11-04T14:37:32;2.07;;;1.00;;
11618;SDS011;5865;48.776;9.280;2022-11-04T14:40:02;4.30;;;1.20;;
11618;SDS011;5865;48.776;9.280;2022-11-04T14:42:41;3.13;;;1.30;;
11618;SDS011;5865;48.776;9.280;2022-11-04T14:45:11;3.60;;;1.40;;
11618;SDS011;5865;48.776;9.280;2022-11-04T14:47:44;3.37;;;1.30;;
11618;SDS011;5865;48.776;9.280;2022-11-04T14:50:31;4.50;;;2.10;;
11618;SDS011;5865;48.776;9.280;2022-11-04T14:53:17;2.97;;;1.03;;
11618;SDS011;5865;48.776;9.280;2022-11-04T14:55:46;2.10;;;1.27;;
11618;SDS011;5865;48.776;9.280;2022-11-04T14:58:20;2.70;;;2.00;;
11618;SDS011;5865;48.776;9.280;2022-11-04T15:00:50;2.60;;;1.80;;
11618;SDS011;5865;48.776;9.280;2022-11-04T15:03:22;2.30;;;1.27;;
11618;SDS011;5865;48.776;9.280;2022-11-04T15:05:58;2.13;;;1.30;;
11618;SDS011;5865;48.776;9.280;2022-11-04T15:08:33;2.20;;;1.37;;
11618;SDS011;5865;48.776;9.280;2022-11-04T15:11:07;3.20;;;1.10;;
11618;SDS011;5865;48.776;9.280;2022-11-04T15:13:38;2.83;;;1.73;;
11618;SDS011;5865;48.776;9.280;2022-11-04T15:16:12;2.53;;;1.40;;
11618;SDS011;5865;48.776;9.280;2022-11-04T15:18:53;2.93;;;1.40;;
11618;SDS011;5865;48.776;9.280;2022-11-04T15:21:23;1.83;;;1.17;;
11618;SDS011;5865;48.776;9.280;2022-11-04T15:23:56;2.40;;;1.33;;
11618;SDS011;5865;48.776;9.280;2022-11-04T15:26:26;1.23;;;1.10;;
11618;SDS011;5865;48.776;9.280;2022-11-04T15:28:56;1.73;;;1.10;;
11618;SDS011;5865;48.776;9.280;2022-11-04T15:31:31;2.43;;;1.10;;
11618;SDS011;5865;48.776;9.280;2022-11-04T15:34:02;2.13;;;1.10;;
11618;SDS011;5865;48.776;9.280;2022-11-04T15:36:34;7.50;;;4.60;;
11618;SDS011;5865;48.776;9.280;2022-11-04T15:39:07;6.50;;;4.77;;
11618;SDS011;5865;48.776;9.280;2022-11-04T15:41:54;5.63;;;4.87;;
11618;SDS011;5865;48.776;9.280;2022-11-04T15:44:43;4.50;;;2.50;;
11618;SDS011;5865;48.776;9.280;2022-11-04T15:47:22;5.27;;;1.60;;
11618;SDS011;5865;48.776;9.280;2022-11-04T15:50:00;4.60;;;2.60;;
11618;SDS011;5865;48.776;9.280;2022-11-04T15:52:35;1.73;;;1.20;;
11618;SDS011;5865;48.776;9.280;2022-11-04T16:01:33;2.80;;;1.20;;
11618;SDS011;5865;48.776;9.280;2022-11-04T16:04:10;2.13;;;1.30;;
11618;SDS011;5865;48.776;9.280;2022-11-04T16:07:02;1.67;;;1.40;;
11618;SDS011;5865;48.776;9.280;2022-11-04T16:09:46;3.30;;;1.70;;
11618;SDS011;5865;48.776;9.280;2022-11-04T16:12:15;3.13;;;1.87;;
11618;SDS011;5865;48.776;9.280;2022-11-04T16:15:04;3.90;;;1.70;;
11618;SDS011;5865;48.776;9.280;2022-11-04T16:17:33;2.67;;;1.63;;
11618;SDS011;5865;48.776;9.280;2022-11-04T16:20:15;2.43;;;1.20;;
11618;SDS011;5865;48.776;9.280;2022-11-04T16:22:43;1.83;;;1.20;;
11618;SDS011;5865;48.776;9.280;2022-11-04T16:25:17;2.03;;;1.10;;
11618;SDS011;5865;48.776;9.280;2022-11-04T16:27:48;1.43;;;1.00;;
11618;SDS011;5865;48.776;9.280;2022-11-04T16:30:17;1.70;;;1.00;;
11618;SDS011;5865;48.776;9.280;2022-11-04T16:32:48;1.57;;;1.03;;
11618;SDS011;5865;48.776;9.280;2022-11-04T16:35:19;3.10;;;1.10;;
11618;SDS011;5865;48.776;9.280;2022-11-04T16:37:48;4.93;;;2.33;;
11618;SDS011;5865;48.776;9.280;2022-11-04T16:40:17;2.20;;;1.73;;
11618;SDS011;5865;48.776;9.280;2022-11-04T16:42:46;1.97;;;1.30;;
11618;SDS011;5865;48.776;9.280;2022-11-04T16:45:16;3.20;;;1.60;;
11618;SDS011;5865;48.776;9.280;2022-11-04T16:47:50;1.33;;;1.20;;
11618;SDS011;5865;48.776;9.280;2022-11-04T16:50:18;2.60;;;1.50;;
11618;SDS011;5865;48.776;9.280;2022-11-04T16:52:48;1.20;;;0.80;;
11618;SDS011;5865;48.776;9.280;2022-11-04T16:55:15;2.27;;;1.10;;
11618;SDS011;5865;48.776;9.280;2022-11-04T16:57:43;2.80;;;1.27;;
11618;SDS011;5865;48.776;9.280;2022-11-04T17:00:15;2.17;;;1.20;;
11618;SDS011;5865;48.776;9.280;2022-11-04T17:02:44;2.53;;;1.20;;
11618;SDS011;5865;48.776;9.280;2022-11-04T17:05:12;1.93;;;1.33;;
11618;SDS011;5865;48.776;9.280;2022-11-04T17:07:39;2.27;;;1.40;;
11618;SDS011;5865;48.776;9.280;2022-11-04T17:10:10;2.17;;;1.50;;
11618;SDS011;5865;48.776;9.280;2022-11-04T17:12:40;3.57;;;1.83;;
11618;SDS011;5865;48.776;9.280;2022-11-04T17:15:08;3.00;;;2.40;;
11618;SDS011;5865;48.776;9.280;2022-11-04T17:17:35;4.13;;;2.27;;
11618;SDS011;5865;48.776;9.280;2022-11-04T17:20:02;3.93;;;2.20;;
11618;SDS011;5865;48.776;9.280;2022-11-04T17:22:32;3.13;;;2.53;;
11618;SDS011;5865;48.776;9.280;2022-11-04T17:24:59;6.07;;;3.00;;
11618;SDS011;5865;48.776;9.280;2022-11-04T17:27:26;6.33;;;3.20;;
11618;SDS011;5865;48.776;9.280;2022-11-04T17:29:53;5.13;;;3.20;;
11618;SDS011;5865;48.776;9.280;2022-11-04T17:32:21;5.70;;;3.27;;
11618;SDS011;5865;48.776;9.280;2022-11-04T17:34:48;5.40;;;3.23;;
11618;SDS011;5865;48.776;9.280;2022-11-04T17:37:15;6.10;;;3.07;;
11618;SDS011;5865;48.776;9.280;2022-11-04T17:39:44;3.97;;;3.00;;
11618;SDS011;5865;48.776;9.280;2022-11-04T17:42:11;4.90;;;3.07;;
11618;SDS011;5865;48.776;9.280;2022-11-04T17:44:55;6.67;;;3.43;;
11618;SDS011;5865;48.776;9.280;2022-11-04T17:47:22;5.23;;;3.27;;
11618;SDS011;5865;48.776;9.280;2022-11-04T17:49:49;4.13;;;2.73;;
11618;SDS011;5865;48.776;9.280;2022-11-04T17:52:16;4.63;;;2.47;;
11618;SDS011;5865;48.776;9.280;2022-11-04T17:54:45;4.23;;;3.03;;
11618;SDS011;5865;48.776;9.280;2022-11-04T17:57:12;4.37;;;3.57;;
11618;SDS011;5865;48.776;9.280;2022-11-04T17:59:39;6.63;;;4.70;;
11618;SDS011;5865;48.776;9.280;2022-11-04T18:02:07;11.73;;;7.83;;
11618;SDS011;5865;48.776;9.280;2022-11-04T18:04:34;3.80;;;3.17;;
11618;SDS011;5865;48.776;9.280;2022-11-04T18:07:01;3.30;;;2.77;;
11618;SDS011;5865;48.776;9.280;2022-11-04T18:09:29;4.37;;;2.90;;
11618;SDS011;5865;48.776;9.280;2022-11-04T18:11:58;4.80;;;3.17;;
11618;SDS011;5865;48.776;9.280;2022-11-04T18:14:43;5.73;;;3.20;;
11618;SDS011;5865;48.776;9.280;2022-11-04T18:17:10;3.73;;;2.87;;
11618;SDS011;5865;48.776;9.280;2022-11-04T18:19:37;3.50;;;2.80;;
11618;SDS011;5865;48.776;9.280;2022-11-04T18:22:04;3.97;;;2.77;;
11618;SDS011;5865;48.776;9.280;2022-11-04T18:24:31;5.30;;;3.40;;
11618;SDS011;5865;48.776;9.280;2022-11-04T18:26:59;5.80;;;3.50;;
11618;SDS011;5865;48.776;9.280;2022-11-04T18:29:26;5.90;;;3.10;;
11618;SDS011;5865;48.776;9.280;2022-11-04T18:31:53;5.17;;;3.20;;
11618;SDS011;5865;48.776;9.280;2022-11-04T18:34:20;6.30;;;3.47;;
11618;SDS011;5865;48.776;9.280;2022-11-04T18:36:47;5.57;;;3.70;;
11618;SDS011;5865;48.776;9.280;2022-11-04T18:39:15;6.20;;;3.10;;
11618;SDS011;5865;48.776;9.280;2022-11-04T18:41:43;12.97;;;8.17;;
11618;SDS011;5865;48.776;9.280;2022-11-04T18:44:13;10.87;;;8.23;;
11618;SDS011;5865;48.776;9.280;2022-11-04T18:46:41;11.20;;;5.87;;
11618;SDS011;5865;48.776;9.280;2022-11-04T18:49:09;5.73;;;4.17;;
11618;SDS011;5865;48.776;9.280;2022-11-04T18:51:36;5.40;;;4.07;;
11618;SDS011;5865;48.776;9.280;2022-11-04T18:54:03;5.30;;;3.77;;
11618;SDS011;5865;48.776;9.280;2022-11-04T18:56:32;5.73;;;3.30;;
11618;SDS011;5865;48.776;9.280;2022-11-04T18:58:59;9.17;;;5.70;;
11618;SDS011;5865;48.776;9.280;2022-11-04T19:01:28;7.70;;;3.40;;
11618;SDS011;5865;48.776;9.280;2022-11-04T19:03:57;4.80;;;3.20;;
11618;SDS011;5865;48.776;9.280;2022-11-04T19:06:25;4.50;;;3.77;;
11618;SDS011;5865;48.776;9.280;2022-11-04T19:08:53;5.93;;;3.83;;
11618;SDS011;5865;48.776;9.280;2022-11-04T19:11:22;6.37;;;3.83;;
11618;SDS011;5865;48.776;9.280;2022-11-04T19:13:50;7.07;;;3.50;;
11618;SDS011;5865;48.776;9.280;2022-11-04T19:16:18;4.73;;;3.30;;
11618;SDS011;5865;48.776;9.280;2022-11-04T19:18:48;7.10;;;3.47;;
11618;SDS011;5865;48.776;9.280;2022-11-04T19:21:16;4.10;;;2.97;;
11618;SDS011;5865;48.776;9.280;2022-11-04T19:23:44;7.63;;;3.03;;
11618;SDS011;5865;48.776;9.280;2022-11-04T19:26:12;5.10;;;3.30;;
11618;SDS011;5865;48.776;9.280;2022-11-04T19:28:42;4.67;;;3.23;;
11618;SDS011;5865;48.776;9.280;2022-11-04T19:31:10;5.27;;;3.50;;
11618;SDS011;5865;48.776;9.280;2022-11-04T19:33:39;5.90;;;3.10;;
11618;SDS011;5865;48.776;9.280;2022-11-04T19:36:09;4.23;;;3.03;;
11618;SDS011;5865;48.776;9.280;2022-11-04T19:38:38;4.50;;;3.47;;
11618;SDS011;5865;48.776;9.280;2022-11-04T19:41:05;3.50;;;2.87;;
11618;SDS011;5865;48.776;9.280;2022-11-04T19:43:54;4.80;;;2.70;;
11618;SDS011;5865;48.776;9.280;2022-11-04T19:46:20;3.40;;;2.67;;
11618;SDS011;5865;48.776;9.280;2022-11-04T19:48:47;3.40;;;2.70;;
11618;SDS011;5865;48.776;9.280;2022-11-04T19:51:16;4.63;;;2.50;;
11618;SDS011;5865;48.776;9.280;2022-11-04T19:53:43;4.40;;;2.50;;
11618;SDS011;5865;48.776;9.280;2022-11-04T19:56:11;4.27;;;2.70;;
11618;SDS011;5865;48.776;9.280;2022-11-04T19:58:40;5.53;;;2.80;;
11618;SDS011;5865;48.776;9.280;2022-11-04T20:01:07;3.50;;;2.50;;
11618;SDS011;5865;48.776;9.280;2022-11-04T20:03:35;3.60;;;2.60;;
11618;SDS011;5865;48.776;9.280;2022-11-04T20:06:02;4.10;;;2.73;;
11618;SDS011;5865;48.776;9.280;2022-11-04T20:08:32;4.20;;;2.87;;
11618;SDS011;5865;48.776;9.280;2022-11-04T20:11:01;5.03;;;2.93;;
11618;SDS011;5865;48.776;9.280;2022-11-04T20:13:29;6.27;;;3.00;;
11618;SDS011;5865;48.776;9.280;2022-11-04T20:16:12;5.73;;;3.50;;
11618;SDS011;5865;48.776;9.280;2022-11-04T20:18:42;4.70;;;3.37;;
11618;SDS011;5865;48.776;9.280;2022-11-04T20:21:10;4.43;;;3.90;;
11618;SDS011;5865;48.776;9.280;2022-11-04T20:23:39;19.07;;;9.50;;
11618;SDS011;5865;48.776;9.280;2022-11-04T20:26:07;15.37;;;8.33;;
11618;SDS011;5865;48.776;9.280;2022-11-04T20:28:37;7.30;;;4.50;;
11618;SDS011;5865;48.776;9.280;2022-11-04T20:31:08;7.43;;;4.67;;
11618;SDS011;5865;48.776;9.280;2022-11-04T20:33:36;5.93;;;3.80;;
11618;SDS011;5865;48.776;9.280;2022-11-04T20:36:04;6.77;;;4.30;;
11618;SDS011;5865;48.776;9.280;2022-11-04T20:38:32;5.73;;;3.90;;
11618;SDS011;5865;48.776;9.280;2022-11-04T20:41:05;5.23;;;4.10;;
11618;SDS011;5865;48.776;9.280;2022-11-04T20:43:34;8.00;;;5.27;;
11618;SDS011;5865;48.776;9.280;2022-11-04T20:46:03;6.07;;;4.67;;
11618;SDS011;5865;48.776;9.280;2022-11-04T20:48:31;7.43;;;5.13;;
11618;SDS011;5865;48.776;9.280;2022-11-04T20:51:03;7.53;;;4.90;;
11618;SDS011;5865;48.776;9.280;2022-11-04T20:53:31;6.40;;;4.30;;
11618;SDS011;5865;48.776;9.280;2022-11-04T20:55:58;5.70;;;4.00;;
11618;SDS011;5865;48.776;9.280;2022-11-04T20:58:27;4.33;;;3.90;;
11618;SDS011;5865;48.776;9.280;2022-11-04T21:00:58;4.40;;;3.33;;
11618;SDS011;5865;48.776;9.280;2022-11-04T21:03:26;5.67;;;3.73;;
11618;SDS011;5865;48.776;9.280;2022-11-04T21:05:53;5.07;;;3.43;;
11618;SDS011;5865;48.776;9.280;2022-11-04T21:08:20;5.87;;;3.63;;
11618;SDS011;5865;48.776;9.280;2022-11-04T21:10:47;6.97;;;4.73;;
11618;SDS011;5865;48.776;9.280;2022-11-04T21:13:15;5.20;;;4.50;;
11618;SDS011;5865;48.776;9.280;2022-11-04T21:15:43;6.70;;;4.40;;
11618;SDS011;5865;48.776;9.280;2022-11-04T21:18:11;7.03;;;5.07;;
11618;SDS011;5865;48.776;9.280;2022-11-04T21:20:39;5.47;;;4.83;;
11618;SDS011;5865;48.776;9.280;2022-11-04T21:23:07;6.00;;;5.10;;